createdAt,value
2022-11-09T00:02:17.631Z,100635.28
2022-11-09T00:05:20.340Z,100636.28
2022-11-09T00:08:22.614Z,100636.44
2022-11-09T00:11:25.399Z,100645.94
2022-11-09T00:14:29.666Z,100635.28
2022-11-09T00:17:32.276Z,100636.44
2022-11-09T00:20:35.321Z,100630.28
2022-11-09T00:23:38.157Z,100634.50
2022-11-09T00:26:40.525Z,100637.16
2022-11-09T00:29:43.796Z,100630.97
2022-11-09T00:32:46.130Z,100634.97
2022-11-09T00:35:49.254Z,100633.75
2022-11-09T00:38:53.848Z,100632.28
2022-11-09T00:41:56.572Z,100631.56
2022-11-09T00:44:58.858Z,100633.66
2022-11-09T00:48:01.962Z,100633.59
2022-11-09T00:51:04.899Z,100633.59
2022-11-09T00:54:08.252Z,100628.50
2022-11-09T00:57:13.378Z,100614.97
2022-11-09T01:00:18.340Z,100622.09
2022-11-09T01:03:22.274Z,100620.81
2022-11-09T01:06:26.654Z,100616.25
2022-11-09T01:09:29.251Z,100616.47
2022-11-09T01:12:32.266Z,100623.69
2022-11-09T01:15:34.700Z,100615.38
2022-11-09T01:18:39.489Z,100615.66
2022-11-09T01:21:42.224Z,100624.81
2022-11-09T01:24:45.795Z,100620.91
2022-11-09T01:27:48.132Z,100623.19
2022-11-09T01:30:50.817Z,100613.44
2022-11-09T01:33:53.403Z,100605.31
2022-11-09T01:36:56.122Z,100615.97
2022-11-09T01:39:58.452Z,100620.75
2022-11-09T01:43:14.015Z,100617.63
2022-11-09T01:46:28.346Z,100618.22
2022-11-09T01:49:56.373Z,100615.31
2022-11-09T01:53:02.294Z,100598.78
2022-11-09T01:56:07.897Z,100596.37
2022-11-09T01:59:17.631Z,100592.09
2022-11-09T02:02:20.859Z,100591.28
2022-11-09T02:05:28.264Z,100585.25
2022-11-09T02:08:31.434Z,100580.75
2022-11-09T02:11:36.613Z,100579.75
2022-11-09T02:14:39.320Z,100581.19
2022-11-09T02:17:43.666Z,100581.69
2022-11-09T02:20:57.821Z,100584.00
2022-11-09T02:24:01.902Z,100577.56
2022-11-09T02:27:06.454Z,100567.72
2022-11-09T02:30:10.888Z,100576.03
2022-11-09T02:33:13.517Z,100572.47
2022-11-09T02:36:16.326Z,100576.28
2022-11-09T02:39:23.283Z,100572.28
2022-11-09T02:42:27.311Z,100578.75
2022-11-09T02:45:29.784Z,100568.50
2022-11-09T02:48:32.656Z,100571.66
2022-11-09T02:51:35.159Z,100555.41
2022-11-09T02:54:38.098Z,100557.75
2022-11-09T02:57:41.204Z,100568.34
2022-11-09T03:00:45.536Z,100579.59
2022-11-09T03:03:48.342Z,100571.91
2022-11-09T03:06:51.082Z,100568.34
2022-11-09T03:09:56.523Z,100572.06
2022-11-09T03:12:59.484Z,100566.91
2022-11-09T03:16:06.412Z,100570.44
2022-11-09T03:19:11.258Z,100573.81
2022-11-09T03:22:13.842Z,100571.81
2022-11-09T03:25:20.426Z,100574.50
2022-11-09T03:28:23.978Z,100586.59
2022-11-09T03:31:27.168Z,100576.53
2022-11-09T03:34:30.138Z,100570.53
2022-11-09T03:37:33.009Z,100568.25
2022-11-09T03:40:35.908Z,100571.03
2022-11-09T03:43:38.700Z,100579.84
2022-11-09T03:46:40.997Z,100572.66
2022-11-09T03:49:43.576Z,100568.25
2022-11-09T03:52:46.712Z,100578.25
2022-11-09T03:55:49.950Z,100575.87
2022-11-09T03:58:55.918Z,100577.81
2022-11-09T04:01:58.685Z,100575.53
2022-11-09T04:05:01.642Z,100569.44
2022-11-09T04:08:04.224Z,100562.41
2022-11-09T04:11:07.182Z,100564.44
2022-11-09T04:14:09.522Z,100569.63
2022-11-09T04:17:12.125Z,100570.25
2022-11-09T04:20:15.900Z,100568.66
2022-11-09T04:23:18.732Z,100559.03
2022-11-09T04:26:21.671Z,100556.75
2022-11-09T04:29:24.300Z,100565.38
2022-11-09T04:32:26.597Z,100560.31
2022-11-09T04:35:32.020Z,100561.56
2022-11-09T04:38:36.445Z,100564.09
2022-11-09T04:41:39.226Z,100559.28
2022-11-09T04:44:49.706Z,100563.19
2022-11-09T04:47:57.497Z,100552.69
2022-11-09T04:51:05.369Z,100550.31
2022-11-09T04:54:08.085Z,100553.00
2022-11-09T04:57:10.382Z,100549.88
2022-11-09T05:00:14.204Z,100565.72
2022-11-09T05:03:17.388Z,100572.47
2022-11-09T05:06:38.680Z,100572.87
2022-11-09T05:09:41.190Z,100581.06
2022-11-09T05:12:45.991Z,100566.72
2022-11-09T05:15:48.588Z,100577.91
2022-11-09T05:18:52.093Z,100573.56
2022-11-09T05:21:54.566Z,100573.84
2022-11-09T05:24:57.187Z,100571.66
2022-11-09T05:27:59.812Z,100564.69
2022-11-09T05:31:02.731Z,100571.66
2022-11-09T05:34:07.080Z,100575.50
2022-11-09T05:37:09.805Z,100576.06
2022-11-09T05:40:12.402Z,100578.41
2022-11-09T05:43:15.650Z,100581.97
2022-11-09T05:46:18.807Z,100569.78
2022-11-09T05:49:21.541Z,100579.75
2022-11-09T05:52:23.945Z,100584.06
2022-11-09T05:55:26.774Z,100583.66
2022-11-09T05:58:29.609Z,100595.44
2022-11-09T06:01:32.265Z,100592.13
2022-11-09T06:04:34.852Z,100582.28
2022-11-09T06:07:37.218Z,100578.38
2022-11-09T06:10:40.693Z,100581.62
2022-11-09T06:13:43.124Z,100582.63
2022-11-09T06:16:45.993Z,100587.06
2022-11-09T06:19:48.353Z,100587.78
2022-11-09T06:22:59.873Z,100591.59
2022-11-09T06:26:10.015Z,100593.16
2022-11-09T06:29:12.885Z,100600.56
2022-11-09T06:32:15.216Z,100592.41
2022-11-09T06:35:18.147Z,100598.84
2022-11-09T06:38:21.995Z,100611.62
2022-11-09T06:41:24.706Z,100593.06
2022-11-09T06:44:27.216Z,100605.81
2022-11-09T06:47:29.808Z,100606.56
2022-11-09T06:50:33.946Z,100605.22
2022-11-09T06:53:37.936Z,100604.97
2022-11-09T06:56:43.464Z,100608.19
2022-11-09T06:59:46.281Z,100599.84
2022-11-09T07:02:48.955Z,100588.34
2022-11-09T07:05:53.249Z,100599.66
2022-11-09T07:08:57.177Z,100592.78
2022-11-09T07:12:00.126Z,100585.44
2022-11-09T07:15:04.280Z,100602.94
2022-11-09T07:18:11.930Z,100580.84
2022-11-09T07:21:14.715Z,100590.75
2022-11-09T07:24:17.460Z,100589.66
2022-11-09T07:27:23.565Z,100586.44
2022-11-09T07:30:29.387Z,100587.28
2022-11-09T07:33:33.341Z,100586.53
2022-11-09T07:36:37.030Z,100595.75
2022-11-09T07:39:40.619Z,100591.97
2022-11-09T07:42:43.422Z,100593.22
2022-11-09T07:45:46.159Z,100602.63
2022-11-09T07:48:49.398Z,100592.97
2022-11-09T07:51:52.057Z,100592.78
2022-11-09T07:54:55.175Z,100589.69
2022-11-09T07:58:05.975Z,100597.69
2022-11-09T08:01:11.171Z,100595.06
2022-11-09T08:04:14.727Z,100580.22
2022-11-09T08:07:17.352Z,100578.94
2022-11-09T08:10:20.993Z,100584.94
2022-11-09T08:13:23.754Z,100587.13
2022-11-09T08:16:27.195Z,100589.28
2022-11-09T08:19:29.897Z,100583.28
2022-11-09T08:22:32.742Z,100581.41
2022-11-09T08:25:35.553Z,100580.28
2022-11-09T08:28:38.750Z,100584.25
2022-11-09T08:31:42.090Z,100582.75
2022-11-09T08:34:48.584Z,100579.47
2022-11-09T08:37:52.687Z,100578.06
2022-11-09T08:40:58.998Z,100583.50
2022-11-09T08:44:01.551Z,100582.75
2022-11-09T08:47:04.365Z,100582.00
2022-11-09T08:50:08.392Z,100585.38
2022-11-09T08:53:11.469Z,100574.66
2022-11-09T08:56:18.408Z,100585.06
2022-11-09T08:59:21.617Z,100570.03
2022-11-09T09:02:24.283Z,100577.44
2022-11-09T09:05:27.172Z,100577.31
2022-11-09T09:08:29.668Z,100565.28
2022-11-09T09:11:32.600Z,100570.56
2022-11-09T09:14:35.674Z,100572.53
2022-11-09T09:17:38.702Z,100566.41
2022-11-09T09:20:41.572Z,100584.66
2022-11-09T09:23:44.334Z,100577.88
2022-11-09T09:26:46.920Z,100582.87
2022-11-09T09:29:50.354Z,100576.66
2022-11-09T09:32:58.260Z,100578.53
2022-11-09T09:36:01.039Z,100577.41
2022-11-09T09:39:04.756Z,100574.94
2022-11-09T09:42:20.256Z,100586.22
2022-11-09T09:45:32.750Z,100584.38
2022-11-09T09:48:43.157Z,100580.78
2022-11-09T09:51:53.308Z,100565.00
2022-11-09T09:55:22.237Z,100556.59
2022-11-09T09:58:27.685Z,100559.50
2022-11-09T10:01:38.058Z,100551.25
2022-11-09T10:04:42.258Z,100570.09
2022-11-09T10:08:01.174Z,100545.84
2022-11-09T10:11:06.673Z,100552.56
2022-11-09T10:14:25.192Z,100554.25
2022-11-09T10:18:12.253Z,100544.22
2022-11-09T10:21:53.222Z,100545.31
2022-11-09T10:29:01.681Z,100530.53
2022-11-09T10:32:17.292Z,100537.53
2022-11-09T10:35:24.848Z,100534.25
2022-11-09T10:38:32.920Z,100539.28
2022-11-09T10:41:53.844Z,100529.53
2022-11-09T10:45:29.027Z,100530.19
2022-11-09T10:48:50.121Z,100526.59
2022-11-09T10:52:43.007Z,100532.03
2022-11-09T10:56:20.227Z,100517.00
2022-11-09T10:59:54.020Z,100515.19
2022-11-09T11:03:19.554Z,100516.56
2022-11-09T11:06:41.159Z,100517.84
2022-11-09T11:10:15.876Z,100514.22
2022-11-09T11:13:37.164Z,100512.28
2022-11-09T11:17:01.305Z,100513.59
2022-11-09T11:20:29.808Z,100504.44
2022-11-09T11:24:11.140Z,100512.84
2022-11-09T11:27:45.145Z,100505.88
2022-11-09T11:31:15.886Z,100491.00
2022-11-09T11:34:59.020Z,100491.91
2022-11-09T11:38:22.723Z,100489.91
2022-11-09T11:42:06.219Z,100487.78
2022-11-09T11:45:40.515Z,100494.50
2022-11-09T11:49:22.545Z,100495.09
2022-11-09T11:52:54.450Z,100484.47
2022-11-09T11:56:24.675Z,100489.44
2022-11-09T12:00:10.835Z,100496.50
2022-11-09T12:04:07.011Z,100489.50
2022-11-09T12:07:58.616Z,100491.72
2022-11-09T12:11:57.529Z,100489.69
2022-11-09T12:15:21.973Z,100490.81
2022-11-09T12:19:35.251Z,100478.00
2022-11-09T12:23:05.532Z,100476.22
2022-11-09T12:26:55.771Z,100486.47
2022-11-09T12:30:40.280Z,100479.09
2022-11-09T12:34:24.826Z,100488.53
2022-11-09T12:37:56.907Z,100483.22
2022-11-09T12:41:22.119Z,100478.00
2022-11-09T12:45:01.910Z,100472.50
2022-11-09T12:48:32.048Z,100466.19
2022-11-09T12:51:58.808Z,100475.75
2022-11-09T12:55:43.911Z,100473.25
2022-11-09T12:59:28.235Z,100464.81
2022-11-09T13:02:58.780Z,100466.78
2022-11-09T13:06:28.313Z,100464.34
2022-11-09T13:10:01.545Z,100458.81
2022-11-09T13:13:25.249Z,100467.16
2022-11-09T13:16:46.226Z,100472.50
2022-11-09T13:24:32.301Z,100454.25
2022-11-09T13:27:53.566Z,100452.75
2022-11-09T13:31:53.079Z,100448.16
2022-11-09T13:35:48.112Z,100458.28
2022-11-09T13:39:32.402Z,100448.06
2022-11-09T13:43:00.730Z,100446.06
2022-11-09T13:46:37.423Z,100438.75
2022-11-09T13:49:58.381Z,100438.84
2022-11-09T13:53:38.624Z,100440.75
2022-11-09T13:57:04.824Z,100434.44
2022-11-09T14:00:26.900Z,100440.22
2022-11-09T14:03:51.815Z,100444.16
2022-11-09T14:07:22.914Z,100437.53
2022-11-09T14:11:11.454Z,100444.09
2022-11-09T14:14:58.301Z,100443.53
2022-11-09T14:18:31.713Z,100448.72
2022-11-09T14:21:53.234Z,100447.00
2022-11-09T14:25:17.103Z,100453.78
2022-11-09T14:28:38.802Z,100453.06
2022-11-09T14:32:18.259Z,100439.84
2022-11-09T14:35:39.951Z,100442.41
2022-11-09T14:39:06.573Z,100438.41
2022-11-09T14:42:27.828Z,100439.06
2022-11-09T14:45:54.349Z,100434.44
2022-11-09T14:49:15.476Z,100440.06
2022-11-09T14:52:36.725Z,100436.09
2022-11-09T14:56:01.649Z,100437.81
2022-11-09T14:59:35.897Z,100436.38
2022-11-09T15:02:57.522Z,100443.25
2022-11-09T15:06:18.547Z,100438.13
2022-11-09T15:09:44.892Z,100438.78
2022-11-09T15:13:38.343Z,100442.53
2022-11-09T15:17:18.193Z,100458.44
2022-11-09T15:20:39.177Z,100446.97
2022-11-09T15:24:08.941Z,100446.69
2022-11-09T15:27:35.383Z,100449.31
2022-11-09T15:30:56.914Z,100445.03
2022-11-09T15:34:24.110Z,100458.28
2022-11-09T15:37:51.618Z,100455.06
2022-11-09T15:41:22.174Z,100448.06
2022-11-09T15:44:45.711Z,100444.69
2022-11-09T15:48:08.612Z,100444.47
2022-11-09T15:51:29.824Z,100448.78
2022-11-09T15:54:51.022Z,100434.00
2022-11-09T15:58:15.342Z,100447.72
2022-11-09T16:01:37.652Z,100435.59
2022-11-09T16:04:58.744Z,100441.72
2022-11-09T16:08:20.760Z,100435.94
2022-11-09T16:11:42.076Z,100443.87
2022-11-09T16:15:03.030Z,100448.19
2022-11-09T16:18:26.189Z,100442.31
2022-11-09T16:21:47.774Z,100437.75
2022-11-09T16:25:09.725Z,100439.31
2022-11-09T16:28:30.526Z,100443.87
2022-11-09T16:31:53.036Z,100440.16
2022-11-09T16:35:30.712Z,100445.31
2022-11-09T16:38:54.330Z,100444.22
2022-11-09T16:42:17.596Z,100443.38
2022-11-09T16:45:49.622Z,100445.94
2022-11-09T16:49:10.980Z,100431.38
2022-11-09T16:52:32.323Z,100445.50
2022-11-09T16:55:53.531Z,100445.50
2022-11-09T16:59:15.392Z,100436.03
2022-11-09T17:02:41.217Z,100441.72
2022-11-09T17:06:03.609Z,100436.38
2022-11-09T17:09:25.381Z,100434.16
2022-11-09T17:12:46.836Z,100443.97
2022-11-09T17:16:12.932Z,100439.41
2022-11-09T17:19:42.763Z,100433.87
2022-11-09T17:23:03.833Z,100445.94
2022-11-09T17:26:25.879Z,100447.75
2022-11-09T17:29:47.034Z,100442.09
2022-11-09T17:33:08.360Z,100444.81
2022-11-09T17:36:57.333Z,100443.44
2022-11-09T17:40:11.945Z,100449.91
2022-11-09T17:43:34.540Z,100450.53
2022-11-09T17:46:55.926Z,100452.25
2022-11-09T17:50:22.404Z,100449.06
2022-11-09T17:53:45.498Z,100446.53
2022-11-09T17:57:07.421Z,100453.09
2022-11-09T18:00:33.744Z,100452.12
2022-11-09T18:03:55.082Z,100440.72
2022-11-09T18:07:17.008Z,100438.06
2022-11-09T18:10:45.207Z,100438.31
2022-11-09T18:14:06.939Z,100435.41
2022-11-09T18:17:27.908Z,100439.06
2022-11-09T18:20:50.014Z,100442.03
2022-11-09T18:24:11.440Z,100439.94
2022-11-09T18:27:34.003Z,100444.16
2022-11-09T18:31:07.414Z,100439.19
2022-11-09T18:34:33.056Z,100436.63
2022-11-09T18:37:56.092Z,100433.19
2022-11-09T18:41:22.283Z,100435.59
2022-11-09T18:44:43.426Z,100432.97
2022-11-09T18:48:06.720Z,100431.59
2022-11-09T18:51:27.915Z,100434.25
2022-11-09T18:54:49.606Z,100435.59
2022-11-09T18:58:11.003Z,100439.88
2022-11-09T19:01:32.161Z,100440.28
2022-11-09T19:04:54.063Z,100436.87
2022-11-09T19:08:15.558Z,100437.31
2022-11-09T19:11:37.775Z,100441.00
2022-11-09T19:14:59.534Z,100433.75
2022-11-09T19:18:21.184Z,100440.44
2022-11-09T19:21:49.228Z,100433.06
2022-11-09T19:25:10.448Z,100438.00
2022-11-09T19:28:35.906Z,100437.03
2022-11-09T19:31:56.951Z,100440.31
2022-11-09T19:35:21.810Z,100446.56
2022-11-09T19:38:49.927Z,100445.62
2022-11-09T19:42:11.577Z,100443.38
2022-11-09T19:45:32.866Z,100437.34
2022-11-09T19:48:54.309Z,100435.56
2022-11-09T19:52:15.589Z,100446.19
2022-11-09T19:55:36.950Z,100446.31
2022-11-09T19:59:01.409Z,100441.22
2022-11-09T20:02:22.331Z,100435.25
2022-11-09T20:05:43.549Z,100440.81
2022-11-09T20:09:05.190Z,100440.41
2022-11-09T20:12:45.343Z,100437.88
2022-11-09T20:16:09.613Z,100440.31
2022-11-09T20:19:31.774Z,100434.63
2022-11-09T20:22:53.129Z,100441.38
2022-11-09T20:26:14.556Z,100439.38
2022-11-09T20:29:35.837Z,100445.06
2022-11-09T20:32:57.278Z,100440.72
2022-11-09T20:36:22.161Z,100438.94
2022-11-09T20:39:44.637Z,100440.87
2022-11-09T20:43:06.456Z,100436.44
2022-11-09T20:46:35.369Z,100431.00
2022-11-09T20:49:57.137Z,100432.03
2022-11-09T20:53:18.713Z,100436.38
2022-11-09T20:56:40.322Z,100437.88
2022-11-09T21:00:01.541Z,100432.63
2022-11-09T21:03:23.044Z,100434.94
2022-11-09T21:06:44.985Z,100435.28
2022-11-09T21:10:07.030Z,100442.31
2022-11-09T21:13:28.664Z,100440.81
2022-11-09T21:16:49.770Z,100440.00
2022-11-09T21:20:11.374Z,100441.72
2022-11-09T21:23:51.972Z,100434.53
2022-11-09T21:27:32.181Z,100434.84
2022-11-09T21:30:53.240Z,100437.50
2022-11-09T21:34:14.454Z,100441.72
2022-11-09T21:37:36.112Z,100439.50
2022-11-09T21:41:06.856Z,100439.38
2022-11-09T21:44:32.089Z,100442.78
2022-11-09T21:47:55.058Z,100440.13
2022-11-09T21:51:16.829Z,100446.56
2022-11-09T21:54:37.938Z,100439.41
2022-11-09T21:57:59.295Z,100434.53
2022-11-09T22:01:20.846Z,100437.81
2022-11-09T22:04:42.089Z,100426.66
2022-11-09T22:08:03.266Z,100432.22
2022-11-09T22:11:45.768Z,100420.22
2022-11-09T22:15:29.801Z,100417.81
2022-11-09T22:19:09.578Z,100421.06
2022-11-09T22:22:32.007Z,100423.37
2022-11-09T22:25:52.973Z,100417.44
2022-11-09T22:29:13.824Z,100419.00
2022-11-09T22:32:37.957Z,100423.34
2022-11-09T22:36:02.614Z,100430.72
2022-11-09T22:39:23.507Z,100433.25
2022-11-09T22:42:44.322Z,100428.81
2022-11-09T22:46:15.971Z,100415.56
2022-11-09T22:49:36.925Z,100407.56
2022-11-09T22:53:03.271Z,100418.84
2022-11-09T22:56:24.706Z,100426.31
2022-11-09T22:59:45.434Z,100423.56
2022-11-09T23:03:08.760Z,100414.50
2022-11-09T23:06:29.634Z,100415.47
2022-11-09T23:09:51.131Z,100419.59
2022-11-09T23:13:12.411Z,100423.37
2022-11-09T23:16:33.815Z,100421.03
2022-11-09T23:19:54.740Z,100422.94
2022-11-09T23:23:15.632Z,100414.94
2022-11-09T23:26:36.381Z,100420.44
2022-11-09T23:29:58.372Z,100425.84
2022-11-09T23:33:19.836Z,100417.25
2022-11-09T23:36:41.020Z,100417.69
2022-11-09T23:40:01.755Z,100409.06
2022-11-09T23:43:23.252Z,100412.19
2022-11-09T23:46:45.061Z,100407.13
2022-11-09T23:50:06.459Z,100411.97
2022-11-09T23:53:32.194Z,100413.47
2022-11-09T23:56:53.191Z,100418.62
